createdAt,value
2023-04-10T00:02:07.720Z,9.90
2023-04-10T00:04:40.123Z,9.91
2023-04-10T00:07:12.661Z,9.93
2023-04-10T00:09:44.734Z,9.83
2023-04-10T00:12:16.957Z,9.88
2023-04-10T00:14:49.070Z,9.90
2023-04-10T00:17:21.278Z,9.94
2023-04-10T00:19:53.424Z,9.91
2023-04-10T00:22:26.152Z,9.89
2023-04-10T00:24:58.205Z,9.95
2023-04-10T00:27:30.378Z,9.93
2023-04-10T00:30:02.938Z,9.91
2023-04-10T00:32:35.171Z,9.94
2023-04-10T00:35:09.366Z,9.88
2023-04-10T00:37:42.001Z,9.89
2023-04-10T00:40:14.162Z,9.87
2023-04-10T00:42:46.864Z,9.88
2023-04-10T00:45:19.178Z,9.87
2023-04-10T00:47:51.985Z,9.86
2023-04-10T00:50:24.801Z,9.80
2023-04-10T00:52:57.820Z,9.74
2023-04-10T00:55:30.550Z,9.70
2023-04-10T00:58:02.967Z,9.67
2023-04-10T01:00:35.424Z,9.65
2023-04-10T01:03:12.152Z,9.60
2023-04-10T01:05:54.721Z,9.57
2023-04-10T01:08:47.942Z,9.56
2023-04-10T01:11:38.838Z,9.52
2023-04-10T01:14:38.644Z,9.59
2023-04-10T01:17:40.672Z,9.50
2023-04-10T01:20:32.144Z,9.45
2023-04-10T01:23:42.346Z,9.46
2023-04-10T01:26:20.103Z,9.48
2023-04-10T01:29:19.899Z,9.39
2023-04-10T01:32:02.585Z,9.39
2023-04-10T01:34:44.915Z,9.43
2023-04-10T01:37:32.122Z,9.47
2023-04-10T01:40:10.075Z,9.47
2023-04-10T01:42:49.172Z,9.36
2023-04-10T01:45:26.200Z,9.32
2023-04-10T01:47:58.690Z,9.29
2023-04-10T01:50:32.135Z,9.30
2023-04-10T01:53:07.332Z,9.24
2023-04-10T01:55:40.173Z,9.24
2023-04-10T01:58:12.850Z,9.19
2023-04-10T02:00:44.938Z,9.18
2023-04-10T02:03:17.266Z,9.19
2023-04-10T02:06:21.660Z,9.17
2023-04-10T02:09:12.881Z,9.11
2023-04-10T02:12:09.596Z,9.04
2023-04-10T02:14:46.012Z,9.07
2023-04-10T02:17:23.852Z,9.06
2023-04-10T02:20:00.303Z,9.04
2023-04-10T02:22:32.828Z,9.05
2023-04-10T02:25:06.507Z,8.97
2023-04-10T02:27:39.366Z,8.92
2023-04-10T02:30:11.905Z,8.94
2023-04-10T02:32:44.325Z,8.91
2023-04-10T02:35:16.509Z,8.84
2023-04-10T02:37:50.966Z,8.81
2023-04-10T02:40:23.171Z,8.70
2023-04-10T02:42:55.250Z,8.62
2023-04-10T02:45:27.337Z,8.64
2023-04-10T02:48:00.357Z,8.58
2023-04-10T02:50:33.026Z,8.57
2023-04-10T02:53:05.062Z,8.47
2023-04-10T02:55:37.127Z,8.42
2023-04-10T02:58:09.178Z,8.47
2023-04-10T03:00:41.216Z,8.51
2023-04-10T03:03:13.366Z,8.43
2023-04-10T03:05:47.268Z,8.39
2023-04-10T03:08:42.696Z,8.42
2023-04-10T03:11:14.741Z,8.43
2023-04-10T03:13:47.754Z,8.41
2023-04-10T03:16:19.894Z,8.44
2023-04-10T03:18:53.115Z,8.45
2023-04-10T03:21:25.181Z,8.42
2023-04-10T03:23:57.302Z,8.40
2023-04-10T03:26:29.391Z,8.32
2023-04-10T03:29:01.462Z,8.24
2023-04-10T03:31:33.541Z,8.19
2023-04-10T03:34:06.017Z,8.21
2023-04-10T03:36:38.359Z,8.23
2023-04-10T03:39:10.471Z,8.30
2023-04-10T03:41:42.527Z,8.30
2023-04-10T03:44:14.580Z,8.27
2023-04-10T03:46:46.685Z,8.14
2023-04-10T03:49:18.785Z,8.09
2023-04-10T03:51:50.888Z,8.10
2023-04-10T03:54:22.955Z,8.11
2023-04-10T03:56:54.964Z,8.10
2023-04-10T03:59:37.830Z,8.02
2023-04-10T04:02:11.238Z,8.05
2023-04-10T04:04:43.579Z,8.08
2023-04-10T04:07:15.640Z,8.08
2023-04-10T04:09:48.152Z,8.08
2023-04-10T04:12:20.209Z,8.13
2023-04-10T04:14:52.367Z,8.20
2023-04-10T04:17:24.511Z,8.16
2023-04-10T04:19:56.652Z,8.15
2023-04-10T04:22:28.656Z,8.14
2023-04-10T04:25:00.775Z,8.10
2023-04-10T04:27:32.819Z,8.00
2023-04-10T04:30:06.641Z,7.99
2023-04-10T04:32:38.972Z,8.04
2023-04-10T04:35:11.278Z,8.12
2023-04-10T04:37:43.392Z,8.16
2023-04-10T04:40:15.590Z,8.15
2023-04-10T04:42:50.650Z,8.10
2023-04-10T04:45:22.843Z,8.19
2023-04-10T04:47:54.895Z,8.18
2023-04-10T04:50:26.975Z,8.21
2023-04-10T04:53:00.607Z,8.10
2023-04-10T04:55:32.674Z,7.98
2023-04-10T04:58:04.813Z,8.07
2023-04-10T05:00:36.869Z,8.11
2023-04-10T05:03:09.174Z,8.04
2023-04-10T05:05:41.365Z,7.95
2023-04-10T05:08:13.450Z,7.96
2023-04-10T05:10:45.587Z,8.02
2023-04-10T05:13:17.775Z,8.01
2023-04-10T05:15:50.038Z,8.10
2023-04-10T05:18:24.068Z,8.15
2023-04-10T05:20:56.260Z,8.22
2023-04-10T05:23:28.388Z,8.03
2023-04-10T05:26:00.506Z,8.13
2023-04-10T05:28:32.644Z,8.12
2023-04-10T05:31:04.985Z,8.14
2023-04-10T05:33:37.045Z,8.26
2023-04-10T05:36:10.600Z,8.22
2023-04-10T05:38:42.669Z,8.23
2023-04-10T05:41:14.763Z,8.37
2023-04-10T05:43:46.800Z,8.45
2023-04-10T05:46:18.930Z,8.40
2023-04-10T05:48:51.687Z,8.55
2023-04-10T05:51:24.155Z,8.48
2023-04-10T05:53:56.310Z,8.39
2023-04-10T05:56:28.413Z,8.48
2023-04-10T05:59:00.558Z,8.42
2023-04-10T06:01:32.594Z,8.53
2023-04-10T06:04:04.925Z,8.50
2023-04-10T06:06:37.189Z,8.62
2023-04-10T06:09:09.301Z,8.68
2023-04-10T06:11:41.640Z,8.83
2023-04-10T06:14:13.671Z,8.98
2023-04-10T06:16:45.776Z,9.01
2023-04-10T06:19:17.862Z,9.00
2023-04-10T06:21:50.312Z,9.12
2023-04-10T06:24:22.595Z,9.07
2023-04-10T06:26:54.668Z,9.26
2023-04-10T06:29:26.726Z,9.28
2023-04-10T06:31:58.815Z,9.35
2023-04-10T06:34:30.900Z,9.37
2023-04-10T06:37:03.038Z,9.44
2023-04-10T06:39:35.131Z,9.53
2023-04-10T06:42:07.204Z,9.63
2023-04-10T06:44:39.303Z,9.66
2023-04-10T06:47:11.677Z,9.72
2023-04-10T06:49:43.910Z,9.85
2023-04-10T06:52:16.953Z,9.98
2023-04-10T06:54:49.286Z,9.91
2023-04-10T06:57:21.516Z,10.14
2023-04-10T06:59:53.583Z,10.22
2023-04-10T07:02:25.836Z,10.30
2023-04-10T07:04:58.176Z,10.28
2023-04-10T07:07:30.508Z,10.40
2023-04-10T07:10:02.577Z,10.56
2023-04-10T07:12:47.317Z,10.59
2023-04-10T07:15:19.391Z,10.73
2023-04-10T07:17:51.514Z,10.70
2023-04-10T07:20:23.544Z,10.88
2023-04-10T07:22:55.665Z,10.98
2023-04-10T07:25:37.556Z,11.09
2023-04-10T07:28:09.749Z,11.09
2023-04-10T07:30:41.987Z,11.28
2023-04-10T07:33:14.254Z,11.52
2023-04-10T07:35:46.652Z,11.72
2023-04-10T07:38:19.312Z,12.09
2023-04-10T07:40:57.668Z,12.43
2023-04-10T07:43:30.205Z,12.53
2023-04-10T07:46:02.323Z,12.86
2023-04-10T07:48:34.428Z,13.12
2023-04-10T07:51:09.426Z,13.35
2023-04-10T07:53:41.631Z,13.57
2023-04-10T07:56:18.896Z,13.70
2023-04-10T07:58:52.089Z,14.10
2023-04-10T08:01:24.362Z,14.66
2023-04-10T08:03:56.749Z,14.89
2023-04-10T08:06:29.120Z,15.40
2023-04-10T08:09:02.181Z,15.85
2023-04-10T08:11:38.319Z,16.42
2023-04-10T08:14:10.960Z,16.70
2023-04-10T08:16:43.117Z,17.32
2023-04-10T08:19:15.564Z,17.81
2023-04-10T08:21:47.621Z,18.14
2023-04-10T08:24:21.642Z,19.12
2023-04-10T08:26:53.696Z,19.60
2023-04-10T08:29:25.783Z,19.05
2023-04-10T08:32:00.762Z,20.36
2023-04-10T08:34:32.829Z,21.14
2023-04-10T08:37:11.894Z,22.07
2023-04-10T08:39:44.110Z,22.96
2023-04-10T08:42:16.220Z,22.03
2023-04-10T08:44:50.528Z,22.32
2023-04-10T08:47:28.339Z,22.96
2023-04-10T08:50:06.980Z,23.08
2023-04-10T08:52:44.651Z,23.20
2023-04-10T08:55:17.310Z,24.39
2023-04-10T08:57:57.986Z,24.76
2023-04-10T09:00:40.052Z,25.01
2023-04-10T09:03:21.650Z,24.71
2023-04-10T09:05:54.958Z,24.73
2023-04-10T09:08:27.086Z,25.06
2023-04-10T09:10:59.175Z,24.30
2023-04-10T09:13:44.121Z,25.15
2023-04-10T09:16:16.479Z,25.21
2023-04-10T09:18:51.581Z,25.62
2023-04-10T09:21:23.690Z,23.61
2023-04-10T09:24:02.145Z,23.06
2023-04-10T09:26:34.416Z,22.48
2023-04-10T09:29:08.108Z,21.35
2023-04-10T09:31:40.686Z,21.80
2023-04-10T09:34:19.391Z,20.90
2023-04-10T09:37:01.969Z,21.59
2023-04-10T09:39:38.637Z,22.18
2023-04-10T09:42:15.165Z,22.28
2023-04-10T09:44:47.231Z,22.67
2023-04-10T09:47:24.483Z,22.68
2023-04-10T09:50:00.909Z,22.86
2023-04-10T09:52:35.161Z,22.79
2023-04-10T09:55:08.924Z,23.48
2023-04-10T09:57:41.202Z,23.89
2023-04-10T10:00:14.854Z,23.93
2023-04-10T10:02:48.836Z,23.03
2023-04-10T10:05:23.073Z,23.16
2023-04-10T10:07:55.620Z,22.76
2023-04-10T10:10:27.799Z,23.21
2023-04-10T10:13:03.856Z,23.01
2023-04-10T10:15:58.742Z,23.99
2023-04-10T10:19:00.223Z,25.20
2023-04-10T10:21:34.470Z,25.35
2023-04-10T10:24:10.067Z,25.48
2023-04-10T10:26:44.497Z,25.52
2023-04-10T10:29:18.821Z,25.67
2023-04-10T10:31:51.253Z,25.45
2023-04-10T10:34:23.623Z,26.03
2023-04-10T10:36:55.672Z,25.52
2023-04-10T10:40:02.406Z,25.94
2023-04-10T10:42:43.409Z,25.91
2023-04-10T10:45:27.163Z,25.81
2023-04-10T10:47:59.620Z,25.32
2023-04-10T10:50:52.589Z,24.67
2023-04-10T10:53:35.346Z,24.69
2023-04-10T10:56:19.853Z,25.95
2023-04-10T10:58:56.139Z,24.74
2023-04-10T11:01:28.835Z,25.49
2023-04-10T11:04:01.094Z,25.70
2023-04-10T11:06:52.676Z,25.11
2023-04-10T11:09:51.599Z,24.71
2023-04-10T11:12:26.091Z,24.05
2023-04-10T11:15:04.703Z,23.38
2023-04-10T11:17:54.612Z,22.73
2023-04-10T11:20:27.962Z,22.10
2023-04-10T11:23:13.304Z,22.03
2023-04-10T11:25:55.953Z,22.16
2023-04-10T11:28:33.924Z,21.82
2023-04-10T11:31:22.784Z,21.95
2023-04-10T11:33:57.806Z,21.59
2023-04-10T11:36:30.791Z,21.89
2023-04-10T11:39:09.208Z,22.70
2023-04-10T11:41:46.699Z,22.44
2023-04-10T11:44:28.034Z,22.51
2023-04-10T11:47:00.239Z,22.04
2023-04-10T11:49:34.803Z,21.74
2023-04-10T11:52:07.328Z,21.50
2023-04-10T11:54:49.256Z,20.50
2023-04-10T11:57:21.675Z,20.31
2023-04-10T11:59:53.742Z,20.31
2023-04-10T12:02:26.157Z,19.90
2023-04-10T12:04:59.576Z,19.81
2023-04-10T12:07:33.047Z,20.07
2023-04-10T12:10:06.392Z,20.09
2023-04-10T12:12:38.581Z,20.06
2023-04-10T12:15:30.326Z,20.02
2023-04-10T12:18:02.917Z,20.27
2023-04-10T12:20:35.081Z,20.46
2023-04-10T12:23:07.266Z,20.72
2023-04-10T12:25:40.806Z,21.62
2023-04-10T12:28:21.739Z,21.85
2023-04-10T12:30:55.368Z,22.62
2023-04-10T12:33:27.545Z,22.88
2023-04-10T12:36:00.093Z,23.25
2023-04-10T12:38:50.532Z,23.58
2023-04-10T12:41:28.846Z,24.18
2023-04-10T12:44:13.745Z,23.38
2023-04-10T12:46:46.306Z,23.48
2023-04-10T12:49:19.092Z,23.40
2023-04-10T12:51:52.737Z,22.79
2023-04-10T12:54:37.246Z,22.66
2023-04-10T12:57:09.446Z,22.53
2023-04-10T12:59:45.009Z,22.22
2023-04-10T13:02:18.998Z,22.34
2023-04-10T13:04:51.588Z,22.55
2023-04-10T13:07:23.736Z,22.44
2023-04-10T13:09:55.894Z,21.57
2023-04-10T13:12:30.115Z,21.66
2023-04-10T13:15:03.063Z,21.10
2023-04-10T13:17:35.504Z,20.98
2023-04-10T13:20:09.993Z,20.71
2023-04-10T13:22:42.130Z,21.10
2023-04-10T13:25:14.248Z,21.40
2023-04-10T13:27:46.319Z,21.27
2023-04-10T13:30:18.432Z,21.03
2023-04-10T13:32:50.522Z,21.06
2023-04-10T13:35:22.748Z,21.68
2023-04-10T13:37:54.810Z,21.48
2023-04-10T13:40:27.271Z,21.72
2023-04-10T13:42:59.561Z,22.07
2023-04-10T13:45:31.664Z,22.24
2023-04-10T13:48:04.246Z,22.08
2023-04-10T13:50:36.455Z,21.65
2023-04-10T13:53:10.434Z,21.34
2023-04-10T13:55:44.008Z,21.64
2023-04-10T13:58:16.212Z,21.62
2023-04-10T14:00:48.295Z,21.76
2023-04-10T14:03:20.522Z,21.50
2023-04-10T14:05:53.375Z,21.38
2023-04-10T14:08:25.520Z,21.86
2023-04-10T14:10:57.685Z,21.82
2023-04-10T14:13:30.613Z,21.62
2023-04-10T14:16:04.379Z,21.58
2023-04-10T14:18:37.525Z,21.08
2023-04-10T14:21:10.279Z,20.72
2023-04-10T14:23:43.171Z,20.60
2023-04-10T14:26:15.531Z,20.39
2023-04-10T14:28:47.598Z,20.30
2023-04-10T14:31:20.652Z,20.60
2023-04-10T14:33:52.935Z,21.15
2023-04-10T14:36:25.695Z,21.50
2023-04-10T14:38:57.720Z,22.11
2023-04-10T14:41:29.978Z,21.64
2023-04-10T14:44:03.306Z,20.98
2023-04-10T14:46:35.481Z,21.18
2023-04-10T14:49:07.548Z,21.60
2023-04-10T14:51:39.668Z,21.46
2023-04-10T14:54:11.851Z,20.79
2023-04-10T14:56:44.381Z,20.01
2023-04-10T15:02:03.349Z,19.85
2023-04-10T15:04:36.220Z,19.70
2023-04-10T15:07:08.380Z,19.70
2023-04-10T15:09:41.085Z,19.69
2023-04-10T15:12:13.198Z,19.69
2023-04-10T15:14:45.298Z,19.33
2023-04-10T15:17:17.567Z,19.23
2023-04-10T15:19:49.680Z,19.16
2023-04-10T15:22:22.011Z,19.41
2023-04-10T15:24:54.082Z,19.57
2023-04-10T15:27:29.013Z,19.39
2023-04-10T15:30:01.342Z,19.17
2023-04-10T15:32:38.010Z,19.32
2023-04-10T15:35:10.391Z,19.27
2023-04-10T15:37:42.649Z,19.38
2023-04-10T15:40:14.746Z,19.30
2023-04-10T15:42:46.821Z,19.45
2023-04-10T15:45:19.025Z,19.29
2023-04-10T15:47:51.180Z,18.94
2023-04-10T15:50:23.273Z,18.92
2023-04-10T15:52:55.381Z,18.69
2023-04-10T15:55:27.537Z,18.84
2023-04-10T15:58:02.251Z,18.63
2023-04-10T16:00:34.776Z,18.73
2023-04-10T16:03:07.138Z,18.76
2023-04-10T16:05:41.460Z,18.75
2023-04-10T16:08:13.593Z,18.64
2023-04-10T16:10:47.556Z,18.52
2023-04-10T16:13:19.697Z,18.52
2023-04-10T16:15:52.309Z,18.53
2023-04-10T16:18:24.612Z,18.40
2023-04-10T16:20:56.686Z,18.35
2023-04-10T16:23:28.811Z,18.39
2023-04-10T16:26:01.037Z,18.32
2023-04-10T16:28:33.173Z,18.27
2023-04-10T16:31:05.729Z,18.22
2023-04-10T16:33:37.813Z,18.00
2023-04-10T16:36:10.190Z,18.05
2023-04-10T16:38:42.375Z,18.02
2023-04-10T16:41:21.071Z,18.05
2023-04-10T16:43:53.326Z,18.16
2023-04-10T16:46:26.965Z,18.21
2023-04-10T16:48:59.098Z,17.88
2023-04-10T16:51:31.375Z,17.91
2023-04-10T16:54:03.963Z,17.93
2023-04-10T16:56:36.069Z,17.96
2023-04-10T16:59:08.206Z,17.94
2023-04-10T17:01:40.399Z,17.97
2023-04-10T17:04:13.608Z,17.87
2023-04-10T17:06:45.694Z,17.83
2023-04-10T17:09:17.960Z,17.83
2023-04-10T17:11:50.276Z,17.72
2023-04-10T17:14:22.387Z,17.55
2023-04-10T17:16:54.533Z,17.61
2023-04-10T17:19:26.619Z,17.58
2023-04-10T17:21:58.790Z,17.56
2023-04-10T17:24:31.765Z,17.56
2023-04-10T17:27:03.934Z,17.43
2023-04-10T17:29:39.976Z,17.46
2023-04-10T17:32:12.080Z,17.40
2023-04-10T17:34:44.480Z,17.42
2023-04-10T17:37:16.626Z,17.41
2023-04-10T17:39:51.899Z,17.44
2023-04-10T17:42:25.924Z,17.13
2023-04-10T17:44:58.380Z,16.85
2023-04-10T17:47:30.580Z,16.71
2023-04-10T17:50:04.228Z,16.38
2023-04-10T17:52:52.541Z,16.32
2023-04-10T17:55:24.944Z,16.42
2023-04-10T17:58:00.036Z,16.56
2023-04-10T18:00:35.446Z,16.60
2023-04-10T18:03:07.773Z,16.62
2023-04-10T18:05:40.088Z,16.62
2023-04-10T18:08:14.385Z,16.57
2023-04-10T18:10:46.796Z,16.69
2023-04-10T18:13:19.028Z,16.70
2023-04-10T18:15:51.303Z,16.79
2023-04-10T18:18:54.989Z,16.87
2023-04-10T18:21:28.165Z,16.87
2023-04-10T18:24:00.597Z,16.83
2023-04-10T18:26:35.438Z,16.82
2023-04-10T18:29:08.006Z,16.83
2023-04-10T18:31:40.222Z,16.89
2023-04-10T18:34:12.678Z,16.92
2023-04-10T18:36:44.989Z,16.94
2023-04-10T18:39:17.076Z,16.97
2023-04-10T18:41:49.233Z,16.80
2023-04-10T18:44:21.294Z,16.66
2023-04-10T18:47:22.687Z,16.74
2023-04-10T18:50:23.646Z,16.65
2023-04-10T18:52:56.186Z,16.70
2023-04-10T18:55:28.452Z,16.77
2023-04-10T18:58:01.038Z,16.76
2023-04-10T19:00:34.361Z,16.70
2023-04-10T19:03:06.764Z,16.70
2023-04-10T19:05:49.508Z,16.69
2023-04-10T19:08:21.779Z,16.75
2023-04-10T19:10:54.017Z,16.69
2023-04-10T19:57:30.483Z,15.37
2023-04-10T20:22:27.195Z,12.68
2023-04-10T20:29:22.687Z,12.17
2023-04-10T20:56:47.979Z,11.68
2023-04-10T21:02:44.122Z,11.48
2023-04-10T21:05:31.781Z,11.45
2023-04-10T21:15:59.276Z,11.23
2023-04-10T21:29:39.482Z,11.23
2023-04-10T21:32:11.897Z,11.24
2023-04-10T21:34:44.338Z,11.27
2023-04-10T21:37:19.543Z,11.23
2023-04-10T21:39:52.017Z,11.25
2023-04-10T21:42:24.472Z,11.21
2023-04-10T21:44:58.102Z,11.10
2023-04-10T21:47:30.852Z,11.15
2023-04-10T21:50:03.193Z,11.16
2023-04-10T21:52:35.650Z,11.23
2023-04-10T21:55:08.941Z,11.24
2023-04-10T21:57:41.300Z,11.25
2023-04-10T22:00:14.737Z,11.34
2023-04-10T22:02:47.241Z,11.37
2023-04-10T22:05:19.735Z,11.44
2023-04-10T22:07:52.590Z,11.49
2023-04-10T22:10:25.042Z,11.54
2023-04-10T22:12:57.510Z,11.53
2023-04-10T22:15:29.709Z,11.54
2023-04-10T22:18:01.997Z,11.62
2023-04-10T22:20:34.588Z,11.51
2023-04-10T22:23:07.023Z,11.47
2023-04-10T22:25:39.304Z,11.50
2023-04-10T22:28:11.651Z,11.60
2023-04-10T22:30:43.959Z,11.50
2023-04-10T22:33:16.408Z,11.35
2023-04-10T22:35:49.391Z,11.30
2023-04-10T22:38:21.672Z,11.16
2023-04-10T22:40:55.511Z,11.24
2023-04-10T22:43:28.022Z,11.08
2023-04-10T22:46:00.786Z,11.08
2023-04-10T22:48:36.418Z,11.12
2023-04-10T22:51:12.995Z,11.17
2023-04-10T22:53:45.265Z,11.11
2023-04-10T22:56:18.821Z,11.09
2023-04-10T22:58:51.229Z,11.05
2023-04-10T23:01:23.563Z,11.01
2023-04-10T23:03:55.909Z,10.97
2023-04-10T23:06:28.269Z,10.95
2023-04-10T23:09:00.601Z,10.96
2023-04-10T23:11:33.443Z,10.85
2023-04-10T23:14:05.809Z,10.88
2023-04-10T23:16:38.344Z,10.94
2023-04-10T23:19:10.650Z,11.03
2023-04-10T23:21:42.850Z,10.91
2023-04-10T23:24:15.170Z,10.94
2023-04-10T23:26:47.515Z,10.98
2023-04-10T23:29:19.972Z,10.99
2023-04-10T23:31:52.171Z,11.01
2023-04-10T23:34:24.439Z,11.04
2023-04-10T23:36:57.214Z,11.06
2023-04-10T23:39:29.648Z,11.08
2023-04-10T23:42:02.479Z,11.08
2023-04-10T23:44:34.765Z,10.97
2023-04-10T23:47:07.361Z,10.91
2023-04-10T23:49:39.909Z,10.90
2023-04-10T23:52:12.204Z,10.78
2023-04-10T23:54:44.578Z,10.78
2023-04-10T23:57:17.093Z,10.68
2023-04-10T23:59:49.783Z,10.65
